sensor_id;sensor_type;location;lat;lon;timestamp;P1;durP1;ratioP1;P2;durP2;ratioP2
57790;SDS011;43621;51.798;21.588;2023-05-10T00:03:33;12.90;;;6.60;;
57790;SDS011;43621;51.798;21.588;2023-05-10T00:07:35;11.60;;;5.70;;
57790;SDS011;43621;51.798;21.588;2023-05-10T00:11:36;17.30;;;6.40;;
57790;SDS011;43621;51.798;21.588;2023-05-10T00:15:37;12.00;;;6.30;;
57790;SDS011;43621;51.798;21.588;2023-05-10T00:19:38;14.40;;;6.70;;
57790;SDS011;43621;51.798;21.588;2023-05-10T00:23:39;16.60;;;6.20;;
57790;SDS011;43621;51.798;21.588;2023-05-10T00:27:40;11.90;;;5.50;;
57790;SDS011;43621;51.798;21.588;2023-05-10T00:31:41;12.70;;;6.30;;
57790;SDS011;43621;51.798;21.588;2023-05-10T00:35:42;13.20;;;6.00;;
57790;SDS011;43621;51.798;21.588;2023-05-10T00:39:43;14.50;;;5.70;;
57790;SDS011;43621;51.798;21.588;2023-05-10T00:43:44;14.10;;;6.10;;
57790;SDS011;43621;51.798;21.588;2023-05-10T00:47:45;14.90;;;5.50;;
57790;SDS011;43621;51.798;21.588;2023-05-10T00:51:46;11.40;;;5.90;;
57790;SDS011;43621;51.798;21.588;2023-05-10T00:55:48;13.30;;;6.20;;
57790;SDS011;43621;51.798;21.588;2023-05-10T00:59:49;15.10;;;5.90;;
57790;SDS011;43621;51.798;21.588;2023-05-10T01:03:51;18.20;;;6.20;;
57790;SDS011;43621;51.798;21.588;2023-05-10T01:07:53;11.10;;;5.70;;
57790;SDS011;43621;51.798;21.588;2023-05-10T01:11:54;14.00;;;7.00;;
57790;SDS011;43621;51.798;21.588;2023-05-10T01:15:56;15.20;;;5.90;;
57790;SDS011;43621;51.798;21.588;2023-05-10T01:19:57;15.50;;;6.20;;
57790;SDS011;43621;51.798;21.588;2023-05-10T01:28:14;12.80;;;5.40;;
57790;SDS011;43621;51.798;21.588;2023-05-10T01:32:32;19.70;;;7.30;;
57790;SDS011;43621;51.798;21.588;2023-05-10T01:36:51;12.10;;;6.00;;
57790;SDS011;43621;51.798;21.588;2023-05-10T01:41:28;15.90;;;5.80;;
57790;SDS011;43621;51.798;21.588;2023-05-10T01:45:59;14.10;;;5.90;;
57790;SDS011;43621;51.798;21.588;2023-05-10T01:50:14;12.90;;;5.60;;
57790;SDS011;43621;51.798;21.588;2023-05-10T01:54:19;14.00;;;5.60;;
57790;SDS011;43621;51.798;21.588;2023-05-10T01:58:23;15.70;;;6.20;;
57790;SDS011;43621;51.798;21.588;2023-05-10T02:02:29;16.10;;;7.00;;
57790;SDS011;43621;51.798;21.588;2023-05-10T02:06:34;15.80;;;6.60;;
57790;SDS011;43621;51.798;21.588;2023-05-10T02:10:37;13.40;;;5.80;;
57790;SDS011;43621;51.798;21.588;2023-05-10T02:14:41;12.40;;;6.10;;
57790;SDS011;43621;51.798;21.588;2023-05-10T02:18:43;12.50;;;6.00;;
57790;SDS011;43621;51.798;21.588;2023-05-10T02:22:46;11.50;;;5.50;;
57790;SDS011;43621;51.798;21.588;2023-05-10T02:26:49;14.20;;;6.60;;
57790;SDS011;43621;51.798;21.588;2023-05-10T02:30:54;24.80;;;10.80;;
57790;SDS011;43621;51.798;21.588;2023-05-10T02:34:56;20.60;;;7.80;;
57790;SDS011;43621;51.798;21.588;2023-05-10T02:38:59;14.60;;;6.40;;
57790;SDS011;43621;51.798;21.588;2023-05-10T02:43:02;20.00;;;7.50;;
57790;SDS011;43621;51.798;21.588;2023-05-10T02:47:06;13.30;;;6.40;;
57790;SDS011;43621;51.798;21.588;2023-05-10T02:51:07;15.10;;;5.80;;
57790;SDS011;43621;51.798;21.588;2023-05-10T02:55:09;13.60;;;5.50;;
57790;SDS011;43621;51.798;21.588;2023-05-10T02:59:12;16.20;;;6.00;;
57790;SDS011;43621;51.798;21.588;2023-05-10T03:03:13;17.50;;;6.10;;
57790;SDS011;43621;51.798;21.588;2023-05-10T03:07:14;19.10;;;7.80;;
57790;SDS011;43621;51.798;21.588;2023-05-10T03:20:02;16.20;;;6.80;;
57790;SDS011;43621;51.798;21.588;2023-05-10T03:24:08;10.80;;;6.10;;
57790;SDS011;43621;51.798;21.588;2023-05-10T03:28:13;10.40;;;6.00;;
57790;SDS011;43621;51.798;21.588;2023-05-10T03:32:16;10.10;;;5.40;;
57790;SDS011;43621;51.798;21.588;2023-05-10T03:36:17;16.00;;;5.90;;
57790;SDS011;43621;51.798;21.588;2023-05-10T03:40:19;14.90;;;5.60;;
57790;SDS011;43621;51.798;21.588;2023-05-10T03:44:20;11.60;;;4.70;;
57790;SDS011;43621;51.798;21.588;2023-05-10T03:48:21;28.10;;;10.60;;
57790;SDS011;43621;51.798;21.588;2023-05-10T03:52:22;10.10;;;6.50;;
57790;SDS011;43621;51.798;21.588;2023-05-10T03:56:23;12.70;;;5.90;;
57790;SDS011;43621;51.798;21.588;2023-05-10T04:00:24;11.60;;;5.90;;
57790;SDS011;43621;51.798;21.588;2023-05-10T04:04:26;11.50;;;6.80;;
57790;SDS011;43621;51.798;21.588;2023-05-10T04:08:27;12.60;;;6.10;;
57790;SDS011;43621;51.798;21.588;2023-05-10T04:12:28;12.90;;;5.60;;
57790;SDS011;43621;51.798;21.588;2023-05-10T04:16:29;11.90;;;5.80;;
57790;SDS011;43621;51.798;21.588;2023-05-10T04:20:31;13.30;;;6.10;;
57790;SDS011;43621;51.798;21.588;2023-05-10T04:24:33;13.50;;;5.60;;
57790;SDS011;43621;51.798;21.588;2023-05-10T04:28:34;11.90;;;6.00;;
57790;SDS011;43621;51.798;21.588;2023-05-10T04:32:36;13.10;;;6.40;;
57790;SDS011;43621;51.798;21.588;2023-05-10T04:36:37;14.30;;;5.50;;
57790;SDS011;43621;51.798;21.588;2023-05-10T04:40:38;12.20;;;6.00;;
57790;SDS011;43621;51.798;21.588;2023-05-10T04:44:39;12.80;;;5.90;;
57790;SDS011;43621;51.798;21.588;2023-05-10T04:48:40;14.20;;;6.40;;
57790;SDS011;43621;51.798;21.588;2023-05-10T04:52:41;15.50;;;6.90;;
57790;SDS011;43621;51.798;21.588;2023-05-10T04:56:42;12.40;;;5.60;;
57790;SDS011;43621;51.798;21.588;2023-05-10T05:00:43;16.40;;;6.70;;
57790;SDS011;43621;51.798;21.588;2023-05-10T05:04:44;9.40;;;4.90;;
57790;SDS011;43621;51.798;21.588;2023-05-10T05:08:45;10.70;;;4.90;;
57790;SDS011;43621;51.798;21.588;2023-05-10T05:12:47;6.60;;;4.10;;
57790;SDS011;43621;51.798;21.588;2023-05-10T05:16:48;10.00;;;4.50;;
57790;SDS011;43621;51.798;21.588;2023-05-10T05:20:50;8.60;;;4.90;;
57790;SDS011;43621;51.798;21.588;2023-05-10T05:24:51;9.00;;;4.80;;
57790;SDS011;43621;51.798;21.588;2023-05-10T05:28:52;16.20;;;6.30;;
57790;SDS011;43621;51.798;21.588;2023-05-10T05:32:55;12.20;;;4.70;;
57790;SDS011;43621;51.798;21.588;2023-05-10T05:36:56;8.90;;;6.10;;
57790;SDS011;43621;51.798;21.588;2023-05-10T05:40:57;14.80;;;5.00;;
57790;SDS011;43621;51.798;21.588;2023-05-10T05:44:58;8.20;;;4.50;;
57790;SDS011;43621;51.798;21.588;2023-05-10T05:49:00;8.60;;;4.20;;
57790;SDS011;43621;51.798;21.588;2023-05-10T05:53:05;9.00;;;4.70;;
57790;SDS011;43621;51.798;21.588;2023-05-10T05:57:06;12.30;;;4.80;;
57790;SDS011;43621;51.798;21.588;2023-05-10T06:01:08;6.90;;;4.20;;
57790;SDS011;43621;51.798;21.588;2023-05-10T06:05:09;8.90;;;4.30;;
57790;SDS011;43621;51.798;21.588;2023-05-10T06:09:10;8.60;;;3.80;;
57790;SDS011;43621;51.798;21.588;2023-05-10T06:13:12;11.40;;;3.80;;
57790;SDS011;43621;51.798;21.588;2023-05-10T06:17:13;10.60;;;7.50;;
57790;SDS011;43621;51.798;21.588;2023-05-10T06:21:14;7.80;;;4.10;;
57790;SDS011;43621;51.798;21.588;2023-05-10T06:25:16;10.50;;;4.00;;
57790;SDS011;43621;51.798;21.588;2023-05-10T06:29:18;7.50;;;3.90;;
57790;SDS011;43621;51.798;21.588;2023-05-10T06:33:19;6.40;;;4.10;;
57790;SDS011;43621;51.798;21.588;2023-05-10T06:37:20;14.20;;;3.60;;
57790;SDS011;43621;51.798;21.588;2023-05-10T06:41:21;4.20;;;3.40;;
57790;SDS011;43621;51.798;21.588;2023-05-10T06:45:22;4.90;;;3.50;;
57790;SDS011;43621;51.798;21.588;2023-05-10T06:49:23;4.80;;;3.10;;
57790;SDS011;43621;51.798;21.588;2023-05-10T06:53:25;3.10;;;2.70;;
57790;SDS011;43621;51.798;21.588;2023-05-10T06:57:26;4.90;;;2.90;;
57790;SDS011;43621;51.798;21.588;2023-05-10T07:01:27;3.70;;;2.80;;
57790;SDS011;43621;51.798;21.588;2023-05-10T07:05:28;4.00;;;3.00;;
57790;SDS011;43621;51.798;21.588;2023-05-10T07:09:30;3.80;;;3.00;;
57790;SDS011;43621;51.798;21.588;2023-05-10T07:13:31;3.80;;;2.30;;
57790;SDS011;43621;51.798;21.588;2023-05-10T07:17:32;5.90;;;2.90;;
57790;SDS011;43621;51.798;21.588;2023-05-10T07:21:34;3.40;;;2.50;;
57790;SDS011;43621;51.798;21.588;2023-05-10T07:25:35;3.80;;;3.40;;
57790;SDS011;43621;51.798;21.588;2023-05-10T07:29:36;6.30;;;3.20;;
57790;SDS011;43621;51.798;21.588;2023-05-10T07:33:38;3.40;;;2.90;;
57790;SDS011;43621;51.798;21.588;2023-05-10T07:37:39;4.70;;;3.30;;
57790;SDS011;43621;51.798;21.588;2023-05-10T07:41:40;4.00;;;3.10;;
57790;SDS011;43621;51.798;21.588;2023-05-10T07:45:41;5.60;;;3.50;;
57790;SDS011;43621;51.798;21.588;2023-05-10T07:49:42;5.50;;;3.80;;
57790;SDS011;43621;51.798;21.588;2023-05-10T07:53:44;11.90;;;4.90;;
57790;SDS011;43621;51.798;21.588;2023-05-10T07:57:45;5.70;;;3.30;;
57790;SDS011;43621;51.798;21.588;2023-05-10T08:01:46;6.20;;;4.10;;
57790;SDS011;43621;51.798;21.588;2023-05-10T08:05:47;7.80;;;4.20;;
57790;SDS011;43621;51.798;21.588;2023-05-10T08:09:48;5.60;;;4.00;;
57790;SDS011;43621;51.798;21.588;2023-05-10T08:13:49;11.90;;;5.20;;
57790;SDS011;43621;51.798;21.588;2023-05-10T08:17:51;5.80;;;3.60;;
57790;SDS011;43621;51.798;21.588;2023-05-10T08:21:53;5.00;;;3.40;;
57790;SDS011;43621;51.798;21.588;2023-05-10T08:25:56;3.10;;;2.80;;
57790;SDS011;43621;51.798;21.588;2023-05-10T08:29:57;5.80;;;3.90;;
57790;SDS011;43621;51.798;21.588;2023-05-10T08:33:58;4.70;;;3.60;;
57790;SDS011;43621;51.798;21.588;2023-05-10T08:37:59;4.20;;;3.50;;
57790;SDS011;43621;51.798;21.588;2023-05-10T08:42:01;6.80;;;3.70;;
57790;SDS011;43621;51.798;21.588;2023-05-10T08:46:04;3.90;;;3.50;;
57790;SDS011;43621;51.798;21.588;2023-05-10T08:50:08;4.50;;;3.60;;
57790;SDS011;43621;51.798;21.588;2023-05-10T08:54:11;5.30;;;4.00;;
57790;SDS011;43621;51.798;21.588;2023-05-10T08:58:13;4.30;;;3.70;;
57790;SDS011;43621;51.798;21.588;2023-05-10T09:02:15;15.60;;;5.20;;
57790;SDS011;43621;51.798;21.588;2023-05-10T09:06:18;5.10;;;3.90;;
57790;SDS011;43621;51.798;21.588;2023-05-10T09:10:19;5.20;;;4.00;;
57790;SDS011;43621;51.798;21.588;2023-05-10T09:14:23;4.70;;;4.20;;
57790;SDS011;43621;51.798;21.588;2023-05-10T09:18:25;14.00;;;4.60;;
57790;SDS011;43621;51.798;21.588;2023-05-10T09:22:27;4.90;;;4.00;;
57790;SDS011;43621;51.798;21.588;2023-05-10T09:26:28;4.70;;;3.60;;
57790;SDS011;43621;51.798;21.588;2023-05-10T09:30:30;4.50;;;4.10;;
57790;SDS011;43621;51.798;21.588;2023-05-10T09:34:32;5.20;;;4.50;;
57790;SDS011;43621;51.798;21.588;2023-05-10T09:38:44;4.70;;;3.60;;
57790;SDS011;43621;51.798;21.588;2023-05-10T09:42:53;4.90;;;3.90;;
57790;SDS011;43621;51.798;21.588;2023-05-10T09:46:55;7.00;;;4.30;;
57790;SDS011;43621;51.798;21.588;2023-05-10T09:50:56;5.80;;;4.30;;
57790;SDS011;43621;51.798;21.588;2023-05-10T09:54:59;4.70;;;4.10;;
57790;SDS011;43621;51.798;21.588;2023-05-10T09:59:03;5.00;;;4.30;;
57790;SDS011;43621;51.798;21.588;2023-05-10T10:03:04;5.90;;;4.00;;
57790;SDS011;43621;51.798;21.588;2023-05-10T10:07:06;5.60;;;4.00;;
57790;SDS011;43621;51.798;21.588;2023-05-10T10:11:07;5.90;;;4.60;;
57790;SDS011;43621;51.798;21.588;2023-05-10T10:15:09;5.20;;;3.90;;
57790;SDS011;43621;51.798;21.588;2023-05-10T10:19:10;5.10;;;3.50;;
57790;SDS011;43621;51.798;21.588;2023-05-10T10:23:13;10.20;;;3.80;;
57790;SDS011;43621;51.798;21.588;2023-05-10T10:27:24;5.40;;;3.80;;
57790;SDS011;43621;51.798;21.588;2023-05-10T10:31:38;5.60;;;3.50;;
57790;SDS011;43621;51.798;21.588;2023-05-10T10:35:51;5.20;;;3.80;;
57790;SDS011;43621;51.798;21.588;2023-05-10T10:39:54;3.90;;;3.10;;
57790;SDS011;43621;51.798;21.588;2023-05-10T10:48:22;4.30;;;3.30;;
57790;SDS011;43621;51.798;21.588;2023-05-10T10:52:25;6.30;;;3.70;;
57790;SDS011;43621;51.798;21.588;2023-05-10T10:56:31;3.20;;;2.40;;
57790;SDS011;43621;51.798;21.588;2023-05-10T11:00:33;5.90;;;2.50;;
57790;SDS011;43621;51.798;21.588;2023-05-10T11:04:41;7.20;;;2.70;;
57790;SDS011;43621;51.798;21.588;2023-05-10T11:08:47;7.60;;;2.50;;
57790;SDS011;43621;51.798;21.588;2023-05-10T11:12:52;5.10;;;2.50;;
57790;SDS011;43621;51.798;21.588;2023-05-10T11:17:02;3.80;;;1.90;;
57790;SDS011;43621;51.798;21.588;2023-05-10T11:21:24;3.70;;;2.40;;
57790;SDS011;43621;51.798;21.588;2023-05-10T11:25:26;5.60;;;2.60;;
57790;SDS011;43621;51.798;21.588;2023-05-10T11:29:28;7.50;;;3.30;;
57790;SDS011;43621;51.798;21.588;2023-05-10T11:33:29;5.70;;;2.40;;
57790;SDS011;43621;51.798;21.588;2023-05-10T11:37:31;4.30;;;2.80;;
57790;SDS011;43621;51.798;21.588;2023-05-10T11:41:34;8.70;;;3.00;;
57790;SDS011;43621;51.798;21.588;2023-05-10T11:45:36;3.70;;;1.80;;
57790;SDS011;43621;51.798;21.588;2023-05-10T11:49:37;19.90;;;3.50;;
57790;SDS011;43621;51.798;21.588;2023-05-10T11:53:39;6.40;;;2.20;;
57790;SDS011;43621;51.798;21.588;2023-05-10T11:57:40;6.60;;;2.40;;
57790;SDS011;43621;51.798;21.588;2023-05-10T12:01:43;7.60;;;2.20;;
57790;SDS011;43621;51.798;21.588;2023-05-10T12:05:44;4.80;;;2.20;;
57790;SDS011;43621;51.798;21.588;2023-05-10T12:10:02;6.10;;;2.20;;
57790;SDS011;43621;51.798;21.588;2023-05-10T12:14:04;6.00;;;2.40;;
57790;SDS011;43621;51.798;21.588;2023-05-10T12:18:07;5.80;;;2.70;;
57790;SDS011;43621;51.798;21.588;2023-05-10T12:22:11;4.40;;;2.40;;
57790;SDS011;43621;51.798;21.588;2023-05-10T12:26:12;6.40;;;2.40;;
57790;SDS011;43621;51.798;21.588;2023-05-10T12:30:13;5.30;;;1.90;;
57790;SDS011;43621;51.798;21.588;2023-05-10T12:34:41;5.70;;;2.20;;
57790;SDS011;43621;51.798;21.588;2023-05-10T12:38:43;4.50;;;2.20;;
57790;SDS011;43621;51.798;21.588;2023-05-10T12:42:48;5.90;;;2.40;;
57790;SDS011;43621;51.798;21.588;2023-05-10T12:46:49;9.40;;;2.80;;
57790;SDS011;43621;51.798;21.588;2023-05-10T12:50:50;6.80;;;2.90;;
57790;SDS011;43621;51.798;21.588;2023-05-10T12:54:52;4.40;;;1.90;;
57790;SDS011;43621;51.798;21.588;2023-05-10T12:58:53;3.70;;;2.20;;
57790;SDS011;43621;51.798;21.588;2023-05-10T13:02:54;5.30;;;2.10;;
57790;SDS011;43621;51.798;21.588;2023-05-10T13:06:55;4.90;;;2.40;;
57790;SDS011;43621;51.798;21.588;2023-05-10T13:11:02;5.40;;;2.70;;
57790;SDS011;43621;51.798;21.588;2023-05-10T13:15:04;4.40;;;2.80;;
57790;SDS011;43621;51.798;21.588;2023-05-10T13:19:06;8.00;;;3.50;;
57790;SDS011;43621;51.798;21.588;2023-05-10T13:23:07;5.00;;;3.20;;
57790;SDS011;43621;51.798;21.588;2023-05-10T13:27:08;10.20;;;4.70;;
57790;SDS011;43621;51.798;21.588;2023-05-10T13:31:09;4.40;;;2.90;;
57790;SDS011;43621;51.798;21.588;2023-05-10T13:35:10;7.50;;;2.70;;
57790;SDS011;43621;51.798;21.588;2023-05-10T13:39:12;4.10;;;2.40;;
57790;SDS011;43621;51.798;21.588;2023-05-10T13:43:13;7.00;;;2.50;;
57790;SDS011;43621;51.798;21.588;2023-05-10T13:47:14;5.00;;;2.20;;
57790;SDS011;43621;51.798;21.588;2023-05-10T13:51:15;4.00;;;2.10;;
57790;SDS011;43621;51.798;21.588;2023-05-10T13:55:16;4.10;;;2.40;;
57790;SDS011;43621;51.798;21.588;2023-05-10T13:59:17;5.60;;;2.40;;
57790;SDS011;43621;51.798;21.588;2023-05-10T14:03:18;4.30;;;2.10;;
57790;SDS011;43621;51.798;21.588;2023-05-10T14:07:19;4.80;;;2.30;;
57790;SDS011;43621;51.798;21.588;2023-05-10T14:11:20;7.10;;;2.30;;
57790;SDS011;43621;51.798;21.588;2023-05-10T14:15:21;6.60;;;2.30;;
57790;SDS011;43621;51.798;21.588;2023-05-10T14:19:22;4.90;;;2.40;;
57790;SDS011;43621;51.798;21.588;2023-05-10T14:23:24;4.40;;;2.00;;
57790;SDS011;43621;51.798;21.588;2023-05-10T14:27:26;5.40;;;2.40;;
57790;SDS011;43621;51.798;21.588;2023-05-10T14:31:27;5.80;;;2.50;;
57790;SDS011;43621;51.798;21.588;2023-05-10T14:35:30;7.80;;;3.00;;
57790;SDS011;43621;51.798;21.588;2023-05-10T14:39:31;4.50;;;1.80;;
57790;SDS011;43621;51.798;21.588;2023-05-10T14:43:33;6.00;;;2.70;;
57790;SDS011;43621;51.798;21.588;2023-05-10T14:47:34;4.80;;;2.20;;
57790;SDS011;43621;51.798;21.588;2023-05-10T14:51:36;31.20;;;16.80;;
57790;SDS011;43621;51.798;21.588;2023-05-10T14:55:37;3.60;;;2.60;;
57790;SDS011;43621;51.798;21.588;2023-05-10T14:59:39;5.90;;;2.00;;
57790;SDS011;43621;51.798;21.588;2023-05-10T15:03:40;2.20;;;1.40;;
57790;SDS011;43621;51.798;21.588;2023-05-10T15:07:41;8.20;;;3.10;;
57790;SDS011;43621;51.798;21.588;2023-05-10T15:11:44;4.30;;;2.70;;
57790;SDS011;43621;51.798;21.588;2023-05-10T15:15:45;9.70;;;6.20;;
57790;SDS011;43621;51.798;21.588;2023-05-10T15:19:46;10.00;;;7.90;;
57790;SDS011;43621;51.798;21.588;2023-05-10T15:23:47;12.60;;;7.50;;
57790;SDS011;43621;51.798;21.588;2023-05-10T15:27:48;13.60;;;5.90;;
57790;SDS011;43621;51.798;21.588;2023-05-10T15:31:50;11.70;;;5.10;;
57790;SDS011;43621;51.798;21.588;2023-05-10T15:35:51;6.60;;;3.30;;
57790;SDS011;43621;51.798;21.588;2023-05-10T15:39:54;4.70;;;2.10;;
57790;SDS011;43621;51.798;21.588;2023-05-10T15:44:02;7.10;;;4.40;;
57790;SDS011;43621;51.798;21.588;2023-05-10T15:48:04;6.30;;;3.40;;
57790;SDS011;43621;51.798;21.588;2023-05-10T15:52:05;4.10;;;2.10;;
57790;SDS011;43621;51.798;21.588;2023-05-10T15:56:06;5.30;;;3.30;;
57790;SDS011;43621;51.798;21.588;2023-05-10T16:00:08;11.70;;;3.00;;
57790;SDS011;43621;51.798;21.588;2023-05-10T16:04:11;5.70;;;2.80;;
57790;SDS011;43621;51.798;21.588;2023-05-10T16:08:12;7.70;;;4.40;;
57790;SDS011;43621;51.798;21.588;2023-05-10T16:12:13;5.50;;;2.50;;
57790;SDS011;43621;51.798;21.588;2023-05-10T16:16:15;5.60;;;2.40;;
57790;SDS011;43621;51.798;21.588;2023-05-10T16:20:16;4.50;;;2.30;;
57790;SDS011;43621;51.798;21.588;2023-05-10T16:24:17;10.60;;;2.70;;
57790;SDS011;43621;51.798;21.588;2023-05-10T16:28:18;7.40;;;3.70;;
57790;SDS011;43621;51.798;21.588;2023-05-10T16:32:22;8.90;;;4.40;;
57790;SDS011;43621;51.798;21.588;2023-05-10T16:36:23;6.50;;;3.50;;
57790;SDS011;43621;51.798;21.588;2023-05-10T16:40:24;10.70;;;5.50;;
57790;SDS011;43621;51.798;21.588;2023-05-10T16:44:25;7.90;;;4.30;;
57790;SDS011;43621;51.798;21.588;2023-05-10T16:48:26;18.90;;;9.50;;
57790;SDS011;43621;51.798;21.588;2023-05-10T16:52:28;8.30;;;4.00;;
57790;SDS011;43621;51.798;21.588;2023-05-10T16:56:29;12.00;;;5.80;;
57790;SDS011;43621;51.798;21.588;2023-05-10T17:00:30;12.50;;;5.70;;
57790;SDS011;43621;51.798;21.588;2023-05-10T17:04:31;11.20;;;5.40;;
57790;SDS011;43621;51.798;21.588;2023-05-10T17:08:32;12.00;;;7.50;;
57790;SDS011;43621;51.798;21.588;2023-05-10T17:12:33;24.30;;;11.40;;
57790;SDS011;43621;51.798;21.588;2023-05-10T17:16:34;12.70;;;6.90;;
57790;SDS011;43621;51.798;21.588;2023-05-10T17:20:36;20.60;;;9.70;;
57790;SDS011;43621;51.798;21.588;2023-05-10T17:24:37;11.00;;;6.30;;
57790;SDS011;43621;51.798;21.588;2023-05-10T17:28:38;12.20;;;6.30;;
57790;SDS011;43621;51.798;21.588;2023-05-10T17:32:39;16.60;;;7.10;;
57790;SDS011;43621;51.798;21.588;2023-05-10T17:36:40;41.30;;;20.10;;
57790;SDS011;43621;51.798;21.588;2023-05-10T17:40:42;26.10;;;11.00;;
57790;SDS011;43621;51.798;21.588;2023-05-10T17:44:43;12.40;;;6.50;;
57790;SDS011;43621;51.798;21.588;2023-05-10T17:48:44;14.80;;;6.60;;
57790;SDS011;43621;51.798;21.588;2023-05-10T17:52:45;18.20;;;6.40;;
57790;SDS011;43621;51.798;21.588;2023-05-10T17:56:46;12.20;;;5.90;;
57790;SDS011;43621;51.798;21.588;2023-05-10T18:00:48;19.40;;;8.50;;
57790;SDS011;43621;51.798;21.588;2023-05-10T18:04:49;21.50;;;9.80;;
57790;SDS011;43621;51.798;21.588;2023-05-10T18:08:50;19.20;;;9.10;;
57790;SDS011;43621;51.798;21.588;2023-05-10T18:12:51;19.70;;;8.20;;
57790;SDS011;43621;51.798;21.588;2023-05-10T18:16:53;15.30;;;8.40;;
57790;SDS011;43621;51.798;21.588;2023-05-10T18:20:54;24.60;;;15.30;;
57790;SDS011;43621;51.798;21.588;2023-05-10T18:24:57;28.30;;;13.10;;
57790;SDS011;43621;51.798;21.588;2023-05-10T18:28:58;28.30;;;15.70;;
57790;SDS011;43621;51.798;21.588;2023-05-10T18:32:59;35.40;;;14.30;;
57790;SDS011;43621;51.798;21.588;2023-05-10T18:37:03;31.00;;;13.40;;
57790;SDS011;43621;51.798;21.588;2023-05-10T18:41:06;31.40;;;11.20;;
57790;SDS011;43621;51.798;21.588;2023-05-10T18:45:08;18.40;;;8.30;;
57790;SDS011;43621;51.798;21.588;2023-05-10T18:49:09;19.90;;;8.40;;
57790;SDS011;43621;51.798;21.588;2023-05-10T18:53:11;27.90;;;12.80;;
57790;SDS011;43621;51.798;21.588;2023-05-10T18:57:14;14.80;;;7.60;;
57790;SDS011;43621;51.798;21.588;2023-05-10T19:01:16;14.50;;;6.90;;
57790;SDS011;43621;51.798;21.588;2023-05-10T19:05:17;16.20;;;6.90;;
57790;SDS011;43621;51.798;21.588;2023-05-10T19:09:19;28.40;;;8.20;;
57790;SDS011;43621;51.798;21.588;2023-05-10T19:13:20;24.90;;;10.00;;
57790;SDS011;43621;51.798;21.588;2023-05-10T19:17:24;17.90;;;7.50;;
57790;SDS011;43621;51.798;21.588;2023-05-10T19:21:26;17.70;;;7.90;;
57790;SDS011;43621;51.798;21.588;2023-05-10T19:25:27;24.50;;;10.20;;
57790;SDS011;43621;51.798;21.588;2023-05-10T19:29:31;25.90;;;9.20;;
57790;SDS011;43621;51.798;21.588;2023-05-10T19:33:32;19.20;;;7.50;;
57790;SDS011;43621;51.798;21.588;2023-05-10T19:37:33;14.60;;;6.30;;
57790;SDS011;43621;51.798;21.588;2023-05-10T19:41:34;15.90;;;7.10;;
57790;SDS011;43621;51.798;21.588;2023-05-10T19:45:35;22.90;;;10.30;;
57790;SDS011;43621;51.798;21.588;2023-05-10T19:49:36;14.10;;;5.90;;
57790;SDS011;43621;51.798;21.588;2023-05-10T19:53:38;17.40;;;7.10;;
57790;SDS011;43621;51.798;21.588;2023-05-10T19:57:43;13.70;;;6.00;;
57790;SDS011;43621;51.798;21.588;2023-05-10T20:01:45;20.50;;;8.60;;
57790;SDS011;43621;51.798;21.588;2023-05-10T20:05:46;35.60;;;14.60;;
57790;SDS011;43621;51.798;21.588;2023-05-10T20:09:47;38.70;;;16.30;;
57790;SDS011;43621;51.798;21.588;2023-05-10T20:13:49;28.10;;;11.80;;
57790;SDS011;43621;51.798;21.588;2023-05-10T20:17:50;17.30;;;9.30;;
57790;SDS011;43621;51.798;21.588;2023-05-10T20:21:52;13.30;;;6.90;;
57790;SDS011;43621;51.798;21.588;2023-05-10T20:25:55;17.10;;;7.50;;
57790;SDS011;43621;51.798;21.588;2023-05-10T20:29:56;13.90;;;6.40;;
57790;SDS011;43621;51.798;21.588;2023-05-10T20:33:57;12.50;;;6.50;;
57790;SDS011;43621;51.798;21.588;2023-05-10T20:37:59;10.10;;;5.30;;
57790;SDS011;43621;51.798;21.588;2023-05-10T20:42:01;11.30;;;5.70;;
57790;SDS011;43621;51.798;21.588;2023-05-10T20:46:03;23.70;;;10.70;;
57790;SDS011;43621;51.798;21.588;2023-05-10T20:50:05;12.50;;;6.90;;
57790;SDS011;43621;51.798;21.588;2023-05-10T20:54:06;11.20;;;5.60;;
57790;SDS011;43621;51.798;21.588;2023-05-10T20:58:07;11.30;;;5.40;;
57790;SDS011;43621;51.798;21.588;2023-05-10T21:02:08;7.90;;;4.90;;
57790;SDS011;43621;51.798;21.588;2023-05-10T21:06:10;25.90;;;11.90;;
57790;SDS011;43621;51.798;21.588;2023-05-10T21:10:11;10.10;;;5.80;;
57790;SDS011;43621;51.798;21.588;2023-05-10T21:14:12;12.70;;;6.90;;
57790;SDS011;43621;51.798;21.588;2023-05-10T21:18:13;16.30;;;7.60;;
57790;SDS011;43621;51.798;21.588;2023-05-10T21:22:14;12.20;;;9.00;;
57790;SDS011;43621;51.798;21.588;2023-05-10T21:26:16;18.90;;;9.10;;
57790;SDS011;43621;51.798;21.588;2023-05-10T21:30:17;15.70;;;5.50;;
57790;SDS011;43621;51.798;21.588;2023-05-10T21:34:19;11.50;;;5.60;;
57790;SDS011;43621;51.798;21.588;2023-05-10T21:38:20;44.60;;;22.30;;
57790;SDS011;43621;51.798;21.588;2023-05-10T21:42:22;18.30;;;9.70;;
57790;SDS011;43621;51.798;21.588;2023-05-10T21:46:23;11.70;;;6.10;;
57790;SDS011;43621;51.798;21.588;2023-05-10T21:50:24;24.70;;;10.60;;
57790;SDS011;43621;51.798;21.588;2023-05-10T21:54:26;13.40;;;6.60;;
57790;SDS011;43621;51.798;21.588;2023-05-10T21:58:27;15.40;;;6.70;;
57790;SDS011;43621;51.798;21.588;2023-05-10T22:02:28;30.40;;;5.90;;
57790;SDS011;43621;51.798;21.588;2023-05-10T22:06:30;9.40;;;4.40;;
57790;SDS011;43621;51.798;21.588;2023-05-10T22:10:31;11.20;;;5.30;;
57790;SDS011;43621;51.798;21.588;2023-05-10T22:14:33;10.70;;;5.10;;
57790;SDS011;43621;51.798;21.588;2023-05-10T22:18:34;8.90;;;4.90;;
57790;SDS011;43621;51.798;21.588;2023-05-10T22:22:36;11.20;;;4.80;;
57790;SDS011;43621;51.798;21.588;2023-05-10T22:26:37;10.90;;;5.30;;
57790;SDS011;43621;51.798;21.588;2023-05-10T22:30:38;12.30;;;5.10;;
57790;SDS011;43621;51.798;21.588;2023-05-10T22:34:41;12.10;;;4.50;;
57790;SDS011;43621;51.798;21.588;2023-05-10T22:38:42;6.80;;;4.30;;
57790;SDS011;43621;51.798;21.588;2023-05-10T22:42:43;10.70;;;4.60;;
57790;SDS011;43621;51.798;21.588;2023-05-10T22:46:45;7.20;;;4.40;;
57790;SDS011;43621;51.798;21.588;2023-05-10T22:50:46;15.00;;;5.80;;
57790;SDS011;43621;51.798;21.588;2023-05-10T22:54:47;16.60;;;6.50;;
57790;SDS011;43621;51.798;21.588;2023-05-10T22:58:48;15.10;;;5.70;;
57790;SDS011;43621;51.798;21.588;2023-05-10T23:02:49;10.20;;;4.40;;
57790;SDS011;43621;51.798;21.588;2023-05-10T23:06:51;9.60;;;4.40;;
57790;SDS011;43621;51.798;21.588;2023-05-10T23:10:53;11.80;;;4.80;;
57790;SDS011;43621;51.798;21.588;2023-05-10T23:14:54;10.00;;;3.60;;
57790;SDS011;43621;51.798;21.588;2023-05-10T23:18:56;12.90;;;4.10;;
57790;SDS011;43621;51.798;21.588;2023-05-10T23:22:57;10.00;;;4.50;;
57790;SDS011;43621;51.798;21.588;2023-05-10T23:26:58;9.50;;;3.90;;
57790;SDS011;43621;51.798;21.588;2023-05-10T23:30:59;5.00;;;3.20;;
57790;SDS011;43621;51.798;21.588;2023-05-10T23:35:00;11.60;;;4.20;;
57790;SDS011;43621;51.798;21.588;2023-05-10T23:39:01;8.90;;;4.50;;
57790;SDS011;43621;51.798;21.588;2023-05-10T23:43:02;11.70;;;4.20;;
57790;SDS011;43621;51.798;21.588;2023-05-10T23:47:03;14.00;;;3.90;;
57790;SDS011;43621;51.798;21.588;2023-05-10T23:51:05;11.50;;;4.00;;
57790;SDS011;43621;51.798;21.588;2023-05-10T23:55:07;14.00;;;4.40;;
57790;SDS011;43621;51.798;21.588;2023-05-10T23:59:09;9.00;;;4.20;;
